createdAt,value
2022-08-04T00:01:41.552Z,4.72
2022-08-04T00:04:34.710Z,4.18
2022-08-04T00:07:43.864Z,4.32
2022-08-04T00:10:13.642Z,4.68
2022-08-04T00:12:43.511Z,4.93
2022-08-04T00:15:14.943Z,4.80
2022-08-04T00:17:59.579Z,4.63
2022-08-04T00:20:30.384Z,4.53
2022-08-04T00:22:58.137Z,4.47
2022-08-04T00:25:25.670Z,4.15
2022-08-04T00:27:52.695Z,5.03
2022-08-04T00:30:19.408Z,5.20
2022-08-04T00:32:46.295Z,4.40
2022-08-04T00:35:17.380Z,4.80
2022-08-04T00:37:47.521Z,4.40
2022-08-04T00:40:19.789Z,4.70
2022-08-04T00:42:59.073Z,4.45
2022-08-04T00:46:10.905Z,4.53
2022-08-04T00:48:53.592Z,4.95
2022-08-04T00:51:33.789Z,4.70
2022-08-04T00:54:35.531Z,5.03
2022-08-04T00:57:34.669Z,4.68
2022-08-04T01:00:13.455Z,5.45
2022-08-04T01:03:04.768Z,10.55
2022-08-04T01:05:46.921Z,8.57
2022-08-04T01:08:16.103Z,6.30
2022-08-04T01:10:48.731Z,4.97
2022-08-04T01:13:34.257Z,5.97
2022-08-04T01:16:05.348Z,4.95
2022-08-04T01:18:44.185Z,5.37
2022-08-04T01:21:29.101Z,4.70
2022-08-04T01:24:14.300Z,4.53
2022-08-04T01:27:06.176Z,4.32
2022-08-04T01:29:49.223Z,4.28
2022-08-04T01:32:28.005Z,4.55
2022-08-04T01:35:05.482Z,5.40
2022-08-04T01:38:01.756Z,4.50
2022-08-04T01:40:45.575Z,4.75
2022-08-04T01:43:14.131Z,3.90
2022-08-04T01:45:41.893Z,4.10
2022-08-04T01:48:08.852Z,4.15
2022-08-04T01:50:37.078Z,4.18
2022-08-04T01:53:04.966Z,4.18
2022-08-04T01:55:55.102Z,4.45
2022-08-04T01:58:19.675Z,4.82
2022-08-04T02:01:05.106Z,4.65
2022-08-04T02:04:18.417Z,4.70
2022-08-04T02:06:36.737Z,3.92
2022-08-04T02:09:10.449Z,4.00
2022-08-04T02:11:40.203Z,4.10
2022-08-04T02:14:38.107Z,4.03
2022-08-04T02:17:19.860Z,4.38
2022-08-04T02:20:19.970Z,4.97
2022-08-04T02:23:01.462Z,4.50
2022-08-04T02:25:32.594Z,4.53
2022-08-04T02:28:30.072Z,5.07
2022-08-04T02:30:56.673Z,4.32
2022-08-04T02:33:35.641Z,4.95
2022-08-04T02:36:04.437Z,5.10
2022-08-04T02:38:36.869Z,5.13
2022-08-04T02:41:05.922Z,4.20
2022-08-04T02:43:50.848Z,5.80
2022-08-04T02:46:20.550Z,5.50
2022-08-04T02:48:48.857Z,5.32
2022-08-04T02:51:18.125Z,4.97
2022-08-04T02:53:47.052Z,4.75
2022-08-04T02:56:18.909Z,5.03
2022-08-04T02:58:49.236Z,5.25
2022-08-04T03:01:15.895Z,4.60
2022-08-04T03:03:59.572Z,4.80
2022-08-04T03:06:40.199Z,5.57
2022-08-04T03:09:54.843Z,5.50
2022-08-04T03:12:46.342Z,5.05
2022-08-04T03:15:30.054Z,6.70
2022-08-04T03:18:15.195Z,5.63
2022-08-04T03:21:08.060Z,5.07
2022-08-04T03:23:43.429Z,5.88
2022-08-04T03:26:25.076Z,5.70
2022-08-04T03:29:26.475Z,5.57
2022-08-04T03:32:25.468Z,6.28
2022-08-04T03:35:13.461Z,5.65
2022-08-04T03:37:58.868Z,6.72
2022-08-04T03:40:40.528Z,6.30
2022-08-04T03:43:57.785Z,6.13
2022-08-04T03:46:41.564Z,6.85
2022-08-04T03:49:48.412Z,6.45
2022-08-04T03:53:11.156Z,5.70
2022-08-04T03:56:02.145Z,5.57
2022-08-04T03:58:52.762Z,5.60
2022-08-04T04:01:19.298Z,5.60
2022-08-04T04:04:19.710Z,5.85
2022-08-04T04:06:54.154Z,6.30
2022-08-04T04:10:11.593Z,6.30
2022-08-04T04:12:56.267Z,5.80
2022-08-04T16:22:31.402Z,2.42
2022-08-04T16:24:58.360Z,3.25
2022-08-04T16:27:42.498Z,2.88
2022-08-04T16:30:14.455Z,2.83
2022-08-04T16:32:46.395Z,2.17
2022-08-04T16:35:21.437Z,2.80
2022-08-04T16:37:48.133Z,3.50
2022-08-04T16:40:38.179Z,2.90
2022-08-04T16:43:09.657Z,3.17
2022-08-04T16:45:51.225Z,2.55
2022-08-04T16:50:49.347Z,3.00
2022-08-04T16:54:02.825Z,3.17
2022-08-04T16:56:05.976Z,2.50
2022-08-04T16:58:36.678Z,2.97
2022-08-04T17:01:32.945Z,2.80
2022-08-04T17:04:05.236Z,2.38
2022-08-04T17:06:40.582Z,2.70
2022-08-04T17:09:11.935Z,2.72
2022-08-04T17:11:38.707Z,2.83
2022-08-04T17:14:06.423Z,2.40
2022-08-04T17:16:35.641Z,2.28
2022-08-04T17:19:03.723Z,2.63
2022-08-04T17:21:32.637Z,2.78
2022-08-04T17:24:14.327Z,6.05
2022-08-04T17:26:52.032Z,3.25
2022-08-04T17:29:42.862Z,3.80
2022-08-04T17:32:19.780Z,3.40
2022-08-04T17:34:51.324Z,3.05
2022-08-04T17:37:41.282Z,4.47
2022-08-04T17:40:12.199Z,3.80
2022-08-04T17:42:40.456Z,2.88
2022-08-04T17:48:00.360Z,3.88
2022-08-04T17:50:34.842Z,3.40
2022-08-04T17:53:12.155Z,3.00
2022-08-04T17:55:47.126Z,3.72
2022-08-04T17:58:22.236Z,3.85
2022-08-04T18:01:23.738Z,3.45
2022-08-04T18:03:51.593Z,3.22
2022-08-04T18:06:20.970Z,3.30
2022-08-04T18:08:59.057Z,3.05
2022-08-04T18:11:41.795Z,3.70
2022-08-04T18:14:10.410Z,3.42
2022-08-04T18:16:46.600Z,3.67
2022-08-04T18:19:18.974Z,4.50
2022-08-04T18:22:00.012Z,3.95
2022-08-04T18:24:36.009Z,4.35
2022-08-04T18:27:24.077Z,4.35
2022-08-04T18:30:34.088Z,5.18
2022-08-04T18:33:04.295Z,4.80
2022-08-04T18:36:31.373Z,5.93
2022-08-04T18:38:22.366Z,7.00
2022-08-04T18:40:54.644Z,6.32
2022-08-04T18:43:28.174Z,5.95
2022-08-04T18:45:58.088Z,4.75
2022-08-04T18:48:36.135Z,5.25
2022-08-04T18:51:23.065Z,5.93
2022-08-04T18:53:58.333Z,5.13
2022-08-04T18:56:29.810Z,6.57
2022-08-04T18:59:01.883Z,4.80
2022-08-04T19:02:12.792Z,5.15
2022-08-04T19:04:33.248Z,9.27
2022-08-04T19:07:29.652Z,5.15
2022-08-04T19:09:53.770Z,6.68
2022-08-04T19:12:26.740Z,6.72
2022-08-04T19:14:58.806Z,6.55
2022-08-04T19:17:54.149Z,5.57
2022-08-04T19:20:25.741Z,6.65
2022-08-04T19:24:28.243Z,6.65
2022-08-04T19:26:03.872Z,7.47
2022-08-04T19:28:33.976Z,5.15
2022-08-04T19:31:01.862Z,5.38
2022-08-04T19:33:55.392Z,6.00
2022-08-04T19:36:17.148Z,5.38
2022-08-04T19:38:45.775Z,4.97
2022-08-04T19:41:18.228Z,4.60
2022-08-04T19:43:47.114Z,5.05
2022-08-04T19:46:17.736Z,4.95
2022-08-04T19:48:59.133Z,4.90
2022-08-04T19:51:33.380Z,5.57
2022-08-04T19:54:02.855Z,5.32
2022-08-04T19:56:40.151Z,5.07
2022-08-04T19:59:28.408Z,6.05
2022-08-04T20:02:03.466Z,6.75
2022-08-04T20:04:31.225Z,5.67
2022-08-04T20:07:02.716Z,6.72
2022-08-04T20:09:37.341Z,5.93
2022-08-04T20:12:05.221Z,6.38
2022-08-04T20:14:33.306Z,5.90
2022-08-04T20:17:10.592Z,5.88
2022-08-04T20:19:39.166Z,5.97
2022-08-04T20:22:50.912Z,7.18
2022-08-04T20:25:17.965Z,6.95
2022-08-04T20:28:00.272Z,6.00
2022-08-04T20:30:37.448Z,6.15
2022-08-04T20:33:06.918Z,6.55
2022-08-04T20:36:00.622Z,6.18
2022-08-04T20:38:33.606Z,6.07
2022-08-04T20:41:05.103Z,5.13
2022-08-04T20:43:35.417Z,5.47
2022-08-04T20:46:18.224Z,5.10
2022-08-04T20:48:51.614Z,5.25
2022-08-04T20:51:20.008Z,5.43
2022-08-04T20:53:59.064Z,5.25
2022-08-04T20:56:31.158Z,4.60
2022-08-04T20:59:07.901Z,5.38
2022-08-04T21:01:34.926Z,5.43
2022-08-04T21:04:28.020Z,4.90
2022-08-04T21:06:57.399Z,4.57
2022-08-04T21:09:26.542Z,4.35
2022-08-04T21:12:05.090Z,4.65
2022-08-04T21:14:31.775Z,4.43
2022-08-04T21:16:58.957Z,4.50
2022-08-04T21:19:27.120Z,5.20
2022-08-04T21:21:54.373Z,4.63
2022-08-04T21:24:25.883Z,4.10
2022-08-04T21:26:56.619Z,4.40
2022-08-04T21:32:13.109Z,4.40
2022-08-04T21:34:40.603Z,3.80
2022-08-04T21:37:11.183Z,4.32
2022-08-04T21:39:50.717Z,4.38
2022-08-04T21:42:29.425Z,4.40
2022-08-04T21:44:57.695Z,5.82
2022-08-04T21:47:24.490Z,4.35
2022-08-04T21:49:56.940Z,5.40
2022-08-04T21:52:24.551Z,5.07
2022-08-04T21:54:54.625Z,4.00
2022-08-04T21:57:24.666Z,5.10
2022-08-04T21:59:51.763Z,5.25
2022-08-04T22:02:18.457Z,4.43
2022-08-04T22:04:45.235Z,4.30
2022-08-04T22:07:12.519Z,5.10
2022-08-04T22:10:00.255Z,4.75
2022-08-04T22:12:29.859Z,4.82
2022-08-04T22:14:57.646Z,4.28
2022-08-04T22:17:29.485Z,5.20
2022-08-04T22:20:02.839Z,4.95
2022-08-04T22:22:30.097Z,5.45
2022-08-04T22:25:02.002Z,5.20
2022-08-04T22:27:58.058Z,4.40
2022-08-04T22:30:29.154Z,9.32
2022-08-04T22:33:00.396Z,12.05
2022-08-04T22:35:35.546Z,5.25
2022-08-04T22:38:21.322Z,4.95
2022-08-04T22:41:00.141Z,4.70
2022-08-04T22:43:32.602Z,4.28
2022-08-04T22:46:01.807Z,4.20
2022-08-04T22:48:32.111Z,5.40
2022-08-04T22:50:59.902Z,4.82
2022-08-04T22:53:26.729Z,5.30
2022-08-04T22:56:07.314Z,4.50
2022-08-04T22:58:45.841Z,5.10
2022-08-04T23:01:18.420Z,8.30
2022-08-04T23:03:51.052Z,6.55
2022-08-04T23:06:25.117Z,5.57
2022-08-04T23:08:52.709Z,5.75
2022-08-04T23:11:19.447Z,5.75
2022-08-04T23:13:46.038Z,5.70
2022-08-04T23:16:14.315Z,4.35
2022-08-04T23:18:42.362Z,5.10
2022-08-04T23:21:12.571Z,5.68
2022-08-04T23:23:45.489Z,6.03
2022-08-04T23:26:27.629Z,5.32
2022-08-04T23:28:58.147Z,5.22
2022-08-04T23:31:25.320Z,5.07
2022-08-04T23:34:08.792Z,5.45
2022-08-04T23:36:35.512Z,5.28
2022-08-04T23:39:05.616Z,5.40
2022-08-04T23:41:53.659Z,5.43
2022-08-04T23:44:24.839Z,5.03
2022-08-04T23:47:02.861Z,5.13
2022-08-04T23:49:43.888Z,9.63
2022-08-04T23:52:23.068Z,9.15
2022-08-04T23:54:55.214Z,6.70
2022-08-04T23:57:22.305Z,6.28
2022-08-04T23:59:54.142Z,4.40
